Time;durP1;ratioP1;P1;durP2;ratioP2;P2;SDS_P1;SDS_P2;PMS_P1;PMS_P2;Temp;Humidity;BMP_temperature;BMP_pressure;BME280_temperature;BME280_humidity;BME280_pressure;Samples;Min_cycle;Max_cycle;Signal;HPM_P1;HPM_P2
2022/03/18 00:01:23;;;;;;;5.65;3.40;;;;;;;;;;5084710;28;20228;-13
2022/03/18 00:03:52;;;;;;;5.57;2.95;;;;;;;;;;5093884;28;20248;-13
2022/03/18 00:06:19;;;;;;;5.22;3.28;;;;;;;;;;5091262;28;20216;-13
2022/03/18 00:08:46;;;;;;;5.10;3.35;;;;;;;;;;5073163;28;21168;-13
2022/03/18 00:11:15;;;;;;;5.25;3.30;;;;;;;;;;5053566;28;20222;-13
2022/03/18 00:13:42;;;;;;;6.35;3.58;;;;;;;;;;5053416;28;20332;-13
2022/03/18 00:16:09;;;;;;;5.03;3.42;;;;;;;;;;5071620;28;20217;-13
2022/03/18 00:18:36;;;;;;;3.65;2.88;;;;;;;;;;5079611;28;20312;-12
2022/03/18 00:21:04;;;;;;;4.05;3.00;;;;;;;;;;5073365;28;20248;-13
2022/03/18 00:23:31;;;;;;;5.10;3.25;;;;;;;;;;5072968;28;20783;-13
2022/03/18 00:25:58;;;;;;;4.95;3.03;;;;;;;;;;5073380;28;20217;-13
2022/03/18 00:28:25;;;;;;;5.78;3.38;;;;;;;;;;5072452;28;20225;-13
2022/03/18 00:30:52;;;;;;;4.03;2.78;;;;;;;;;;5079867;28;20240;-13
2022/03/18 00:33:21;;;;;;;5.80;3.10;;;;;;;;;;5093031;28;20721;-13
2022/03/18 00:35:48;;;;;;;4.20;2.75;;;;;;;;;;5093400;28;20726;-13
2022/03/18 00:38:15;;;;;;;4.40;2.92;;;;;;;;;;5093367;28;20738;-13
2022/03/18 00:40:44;;;;;;;3.83;2.72;;;;;;;;;;5060597;28;20928;-13
2022/03/18 00:43:12;;;;;;;4.30;3.25;;;;;;;;;;5052320;28;20250;-13
2022/03/18 00:45:39;;;;;;;4.20;2.70;;;;;;;;;;5062201;28;20225;-13
2022/03/18 00:53:37;;;;;;;4.60;3.00;;;;;;;;;;5073028;28;20238;-13
2022/03/18 00:56:04;;;;;;;6.75;3.00;;;;;;;;;;5072929;28;20205;-13
2022/03/18 00:58:32;;;;;;;5.05;3.25;;;;;;;;;;5072197;28;20721;-13
2022/03/18 01:00:59;;;;;;;3.67;2.58;;;;;;;;;;5072487;28;20229;-13
2022/03/18 01:03:26;;;;;;;5.53;3.22;;;;;;;;;;5071764;28;20233;-13
2022/03/18 01:05:53;;;;;;;4.20;3.13;;;;;;;;;;5070610;28;20229;-13
2022/03/18 01:08:20;;;;;;;4.85;3.00;;;;;;;;;;5064435;28;20226;-13
2022/03/18 01:10:48;;;;;;;3.83;3.00;;;;;;;;;;5072679;28;20237;-13
2022/03/18 01:13:15;;;;;;;5.13;3.10;;;;;;;;;;5070344;28;20229;-13
2022/03/18 01:15:42;;;;;;;4.88;3.10;;;;;;;;;;5064045;28;20236;-13
2022/03/18 01:18:09;;;;;;;7.65;3.22;;;;;;;;;;5072186;28;20229;-13
2022/03/18 01:20:36;;;;;;;4.35;2.85;;;;;;;;;;5072391;28;20498;-13
2022/03/18 01:23:06;;;;;;;3.35;2.80;;;;;;;;;;5071592;28;20241;-13
2022/03/18 01:25:33;;;;;;;5.18;2.83;;;;;;;;;;5072379;28;20232;-13
2022/03/18 01:28:03;;;;;;;4.65;2.83;;;;;;;;;;5071452;28;20238;-13
2022/03/18 01:30:30;;;;;;;5.05;3.35;;;;;;;;;;5075955;28;20217;-13
2022/03/18 01:33:00;;;;;;;3.97;2.75;;;;;;;;;;5092498;28;20655;-13
2022/03/18 01:35:27;;;;;;;5.03;3.35;;;;;;;;;;5092771;28;20227;-13
2022/03/18 01:37:54;;;;;;;3.85;2.90;;;;;;;;;;5083851;28;20722;-12
2022/03/18 01:40:21;;;;;;;4.45;3.00;;;;;;;;;;5072365;28;20692;-13
2022/03/18 01:42:48;;;;;;;5.35;3.33;;;;;;;;;;5072149;28;20581;-13
2022/03/18 01:45:15;;;;;;;4.82;2.97;;;;;;;;;;5073829;28;20669;-13
2022/03/18 01:47:45;;;;;;;3.38;3.00;;;;;;;;;;5091800;28;20236;-13
2022/03/18 01:50:12;;;;;;;4.70;2.90;;;;;;;;;;5073828;28;20236;-13
2022/03/18 01:52:39;;;;;;;3.72;2.67;;;;;;;;;;5071573;28;20222;-13
2022/03/18 01:55:06;;;;;;;5.18;3.20;;;;;;;;;;5071445;28;20225;-13
2022/03/18 01:57:33;;;;;;;4.25;3.30;;;;;;;;;;5072218;28;20229;-13
2022/03/18 02:00:00;;;;;;;4.20;2.83;;;;;;;;;;5070920;28;20336;-13
2022/03/18 02:02:27;;;;;;;5.15;3.50;;;;;;;;;;5091822;28;20675;-13
2022/03/18 02:04:54;;;;;;;5.00;2.97;;;;;;;;;;5088623;28;20236;-13
2022/03/18 02:07:21;;;;;;;5.47;3.40;;;;;;;;;;5051905;28;20323;-13
2022/03/18 02:09:48;;;;;;;5.00;3.15;;;;;;;;;;5068016;28;20237;-13
2022/03/18 02:12:15;;;;;;;6.00;3.15;;;;;;;;;;5070536;28;20234;-13
2022/03/18 02:14:42;;;;;;;4.35;3.20;;;;;;;;;;5071645;28;20229;-13
2022/03/18 02:17:09;;;;;;;4.80;2.80;;;;;;;;;;5071904;28;20229;-13
2022/03/18 02:19:36;;;;;;;4.47;3.00;;;;;;;;;;5071611;28;20302;-13
2022/03/18 02:22:03;;;;;;;3.47;3.00;;;;;;;;;;5070428;28;20255;-13
2022/03/18 02:24:30;;;;;;;4.85;3.03;;;;;;;;;;5052789;28;20227;-13
2022/03/18 02:26:57;;;;;;;3.80;2.90;;;;;;;;;;5051505;28;20233;-13
2022/03/18 02:29:24;;;;;;;4.43;2.80;;;;;;;;;;5051445;28;20669;-13
2022/03/18 02:31:51;;;;;;;4.65;3.05;;;;;;;;;;5081146;28;20213;-13
2022/03/18 02:34:18;;;;;;;6.97;3.15;;;;;;;;;;5072389;28;20230;-13
2022/03/18 02:36:45;;;;;;;4.63;3.28;;;;;;;;;;5071061;28;20963;-13
2022/03/18 02:39:12;;;;;;;4.32;2.75;;;;;;;;;;5067038;28;20229;-13
2022/03/18 02:41:39;;;;;;;4.72;3.30;;;;;;;;;;5071499;28;20245;-14
2022/03/18 02:44:06;;;;;;;3.53;2.90;;;;;;;;;;5078550;28;20947;-13
2022/03/18 02:46:33;;;;;;;3.22;2.80;;;;;;;;;;5091449;28;20223;-13
2022/03/18 02:49:01;;;;;;;4.10;3.10;;;;;;;;;;5091571;28;20668;-13
2022/03/18 02:51:28;;;;;;;4.75;3.08;;;;;;;;;;5092095;28;20315;-13
2022/03/18 02:53:55;;;;;;;4.60;2.60;;;;;;;;;;5091652;28;20216;-14
2022/03/18 02:56:22;;;;;;;4.35;3.03;;;;;;;;;;5071511;28;20230;-13
2022/03/18 02:58:49;;;;;;;3.78;2.70;;;;;;;;;;5070873;28;20228;-13
2022/03/18 03:01:16;;;;;;;4.78;2.95;;;;;;;;;;5080764;28;20232;-13
2022/03/18 03:03:43;;;;;;;4.90;3.15;;;;;;;;;;5091077;28;20708;-14
2022/03/18 03:08:56;;;;;;;3.83;2.90;;;;;;;;;;5073522;28;20226;-13
2022/03/18 03:11:23;;;;;;;4.63;2.85;;;;;;;;;;5058517;28;20230;-13
2022/03/18 03:13:50;;;;;;;4.78;3.08;;;;;;;;;;5054153;28;20229;-13
2022/03/18 03:16:18;;;;;;;4.03;2.83;;;;;;;;;;5072894;28;20227;-13
2022/03/18 03:18:46;;;;;;;3.88;2.97;;;;;;;;;;5074683;28;20241;-14
2022/03/18 03:21:13;;;;;;;5.45;3.00;;;;;;;;;;5078246;22;20676;-14
2022/03/18 03:23:40;;;;;;;5.55;3.25;;;;;;;;;;5093962;28;20244;-14
2022/03/18 03:26:07;;;;;;;5.47;3.17;;;;;;;;;;5094808;28;20229;-14
2022/03/18 03:28:34;;;;;;;3.83;3.10;;;;;;;;;;5094670;28;20229;-14
2022/03/18 03:31:01;;;;;;;4.60;3.20;;;;;;;;;;5095674;28;20231;-14
2022/03/18 03:33:28;;;;;;;5.38;3.40;;;;;;;;;;5095298;28;20221;-14
2022/03/18 03:35:55;;;;;;;4.95;3.25;;;;;;;;;;5094409;28;20225;-14
2022/03/18 03:38:23;;;;;;;5.88;3.40;;;;;;;;;;5093399;28;20233;-14
2022/03/18 03:40:50;;;;;;;3.58;2.85;;;;;;;;;;5090284;28;20229;-14
2022/03/18 03:43:17;;;;;;;4.90;3.10;;;;;;;;;;5073683;28;20724;-14
2022/03/18 03:45:44;;;;;;;4.35;3.10;;;;;;;;;;5085417;28;20216;-14
2022/03/18 03:48:11;;;;;;;4.28;3.10;;;;;;;;;;5114624;28;20212;-14
2022/03/18 03:50:40;;;;;;;4.03;3.08;;;;;;;;;;5100361;28;21101;-14
2022/03/18 03:53:07;;;;;;;3.67;3.03;;;;;;;;;;5094260;28;20307;-14
2022/03/18 03:55:38;;;;;;;6.13;3.30;;;;;;;;;;5094166;28;20232;-14
2022/03/18 03:58:06;;;;;;;4.55;3.15;;;;;;;;;;5094217;28;20224;-14
2022/03/18 04:00:33;;;;;;;4.97;3.22;;;;;;;;;;5090366;28;20237;-14
2022/03/18 04:03:00;;;;;;;4.22;3.22;;;;;;;;;;5073714;28;20214;-14
2022/03/18 04:05:27;;;;;;;3.92;3.00;;;;;;;;;;5073541;28;20229;-14
2022/03/18 04:07:54;;;;;;;5.65;3.65;;;;;;;;;;5073559;28;20225;-14
2022/03/18 04:10:21;;;;;;;5.10;3.05;;;;;;;;;;5073578;28;20719;-13
2022/03/18 04:12:48;;;;;;;4.53;3.50;;;;;;;;;;5087089;28;20247;-13
2022/03/18 04:15:15;;;;;;;3.67;2.90;;;;;;;;;;5094307;28;20235;-13
2022/03/18 04:17:42;;;;;;;3.92;3.22;;;;;;;;;;5112855;28;20228;-13
2022/03/18 04:20:09;;;;;;;3.97;3.22;;;;;;;;;;5114111;28;20990;-13
2022/03/18 04:22:36;;;;;;;3.75;2.80;;;;;;;;;;5085977;28;20245;-13
2022/03/18 04:25:03;;;;;;;5.55;3.17;;;;;;;;;;5073200;28;20237;-13
2022/03/18 04:27:30;;;;;;;3.45;2.90;;;;;;;;;;5073423;28;20316;-13
2022/03/18 04:29:57;;;;;;;4.68;2.95;;;;;;;;;;5073222;28;20225;-13
2022/03/18 04:32:24;;;;;;;4.53;3.10;;;;;;;;;;5092899;28;20979;-13
2022/03/18 04:34:51;;;;;;;4.68;3.35;;;;;;;;;;5077841;28;20229;-13
2022/03/18 04:37:18;;;;;;;3.17;2.67;;;;;;;;;;5072664;28;20228;-13
2022/03/18 04:39:45;;;;;;;4.55;3.17;;;;;;;;;;5052455;28;20257;-13
2022/03/18 04:42:12;;;;;;;4.63;3.53;;;;;;;;;;5053006;28;20267;-13
2022/03/18 04:44:39;;;;;;;4.53;3.28;;;;;;;;;;5056369;28;20708;-13
2022/03/18 04:47:06;;;;;;;4.60;3.20;;;;;;;;;;5090163;28;20692;-13
2022/03/18 04:49:33;;;;;;;5.78;3.25;;;;;;;;;;5092881;28;20232;-13
2022/03/18 04:52:00;;;;;;;3.25;2.88;;;;;;;;;;5093330;28;20639;-13
2022/03/18 04:54:27;;;;;;;3.60;3.00;;;;;;;;;;5092846;28;20232;-13
2022/03/18 04:59:40;;;;;;;4.88;3.38;;;;;;;;;;5072575;28;20234;-13
2022/03/18 05:02:13;;;;;;;5.22;3.55;;;;;;;;;;5090693;28;20776;-13
2022/03/18 05:04:41;;;;;;;5.63;3.15;;;;;;;;;;5092201;28;20711;-13
2022/03/18 05:07:08;;;;;;;4.05;2.85;;;;;;;;;;5082598;28;20241;-13
2022/03/18 05:09:35;;;;;;;5.22;3.20;;;;;;;;;;5057217;28;20849;-13
2022/03/18 05:12:02;;;;;;;4.78;3.20;;;;;;;;;;5072493;28;20229;-13
2022/03/18 05:14:29;;;;;;;3.88;3.00;;;;;;;;;;5072633;28;21009;-13
2022/03/18 05:16:56;;;;;;;4.32;3.20;;;;;;;;;;5088539;28;20612;-13
2022/03/18 05:19:23;;;;;;;4.90;3.22;;;;;;;;;;5072455;28;20236;-13
2022/03/18 05:21:50;;;;;;;4.03;3.33;;;;;;;;;;5071848;28;20248;-13
2022/03/18 05:24:17;;;;;;;4.93;3.20;;;;;;;;;;5072648;28;20237;-13
2022/03/18 05:26:44;;;;;;;5.57;3.25;;;;;;;;;;5072322;28;20225;-13
2022/03/18 05:29:13;;;;;;;4.40;3.00;;;;;;;;;;5071018;28;20237;-13
2022/03/18 05:31:41;;;;;;;6.28;3.20;;;;;;;;;;5072060;28;20261;-13
2022/03/18 05:34:08;;;;;;;4.60;3.00;;;;;;;;;;5072454;28;20946;-13
2022/03/18 05:36:35;;;;;;;4.68;3.13;;;;;;;;;;5071945;28;20252;-13
2022/03/18 05:39:02;;;;;;;3.17;2.80;;;;;;;;;;5071575;28;20225;-13
2022/03/18 05:41:29;;;;;;;4.80;3.03;;;;;;;;;;5071259;28;20230;-13
2022/03/18 05:43:56;;;;;;;4.25;3.00;;;;;;;;;;5072055;28;20213;-13
2022/03/18 05:46:23;;;;;;;3.15;2.67;;;;;;;;;;5071757;28;20962;-13
2022/03/18 05:48:50;;;;;;;4.28;2.90;;;;;;;;;;5072202;28;20688;-13
2022/03/18 05:51:17;;;;;;;3.85;2.85;;;;;;;;;;5071006;28;20675;-13
2022/03/18 05:53:44;;;;;;;3.95;2.95;;;;;;;;;;5071344;28;20236;-13
2022/03/18 05:58:57;;;;;;;4.10;3.10;;;;;;;;;;5071873;28;20704;-13
2022/03/18 06:01:24;;;;;;;5.53;2.80;;;;;;;;;;5077431;28;20950;-13
2022/03/18 06:03:51;;;;;;;4.35;2.85;;;;;;;;;;5051668;28;20230;-13
2022/03/18 06:06:18;;;;;;;4.00;2.83;;;;;;;;;;5051735;28;20230;-13
2022/03/18 06:11:49;;;;;;;4.40;2.83;;;;;;;;;;5051817;28;20222;-13
2022/03/18 06:14:16;;;;;;;3.80;2.67;;;;;;;;;;5069365;28;20320;-13
2022/03/18 06:16:43;;;;;;;5.32;3.22;;;;;;;;;;5058110;28;20257;-13
2022/03/18 06:19:11;;;;;;;4.57;2.75;;;;;;;;;;5051110;28;20228;-13
2022/03/18 06:21:38;;;;;;;3.63;2.60;;;;;;;;;;5050822;28;20245;-13
2022/03/18 06:24:05;;;;;;;2.67;2.22;;;;;;;;;;5059251;28;20688;-13
2022/03/18 06:26:33;;;;;;;4.30;2.78;;;;;;;;;;5071377;28;20229;-13
2022/03/18 06:29:00;;;;;;;5.25;2.85;;;;;;;;;;5071723;28;20217;-13
2022/03/18 06:31:27;;;;;;;4.20;2.80;;;;;;;;;;5083180;28;20224;-13
2022/03/18 06:33:55;;;;;;;4.18;2.72;;;;;;;;;;5091713;28;20300;-13
2022/03/18 06:36:21;;;;;;;4.07;2.75;;;;;;;;;;5071630;28;20764;-13
2022/03/18 06:38:48;;;;;;;2.97;2.38;;;;;;;;;;5070725;28;20237;-13
2022/03/18 06:41:16;;;;;;;4.60;2.67;;;;;;;;;;5074558;28;20209;-13
2022/03/18 06:43:43;;;;;;;4.00;2.60;;;;;;;;;;5074572;28;20255;-13
2022/03/18 06:46:11;;;;;;;4.93;2.60;;;;;;;;;;5074208;28;20237;-13
2022/03/18 06:48:38;;;;;;;3.53;2.17;;;;;;;;;;5074994;28;20225;-13
2022/03/18 06:51:05;;;;;;;4.78;2.80;;;;;;;;;;5075089;28;20228;-13
2022/03/18 06:53:32;;;;;;;4.05;2.65;;;;;;;;;;5074645;28;20379;-13
2022/03/18 06:56:00;;;;;;;3.35;2.25;;;;;;;;;;5074605;28;20228;-13
2022/03/18 06:58:30;;;;;;;3.00;2.38;;;;;;;;;;5073876;28;20233;-13
2022/03/18 07:00:56;;;;;;;3.78;2.50;;;;;;;;;;5074464;28;20222;-13
2022/03/18 07:03:24;;;;;;;4.75;2.60;;;;;;;;;;5074490;28;20324;-13
2022/03/18 07:05:51;;;;;;;3.95;2.53;;;;;;;;;;5074488;28;20235;-13
2022/03/18 07:08:18;;;;;;;3.97;2.60;;;;;;;;;;5072946;28;20229;-13
2022/03/18 07:10:45;;;;;;;3.50;2.58;;;;;;;;;;5074495;28;20225;-13
2022/03/18 07:13:12;;;;;;;3.83;2.28;;;;;;;;;;5074389;28;20209;-13
2022/03/18 07:15:39;;;;;;;3.53;2.42;;;;;;;;;;5074610;28;20230;-13
2022/03/18 07:18:06;;;;;;;3.47;2.33;;;;;;;;;;5074533;28;20224;-13
2022/03/18 07:20:33;;;;;;;3.85;2.28;;;;;;;;;;5074066;28;20226;-13
2022/03/18 07:23:00;;;;;;;3.30;2.40;;;;;;;;;;5073997;28;20233;-13
2022/03/18 07:25:27;;;;;;;3.17;2.30;;;;;;;;;;5074301;28;20233;-13
2022/03/18 07:27:54;;;;;;;4.00;2.78;;;;;;;;;;5074438;28;20218;-13
2022/03/18 07:30:21;;;;;;;5.10;2.75;;;;;;;;;;5075604;28;20229;-13
2022/03/18 07:32:48;;;;;;;2.60;2.25;;;;;;;;;;5093917;28;20229;-13
2022/03/18 07:35:15;;;;;;;4.15;2.50;;;;;;;;;;5094573;28;20256;-13
2022/03/18 07:37:42;;;;;;;3.55;2.40;;;;;;;;;;5083976;28;20225;-13
2022/03/18 07:40:09;;;;;;;3.03;2.50;;;;;;;;;;5073751;28;20221;-13
2022/03/18 07:42:36;;;;;;;3.65;2.00;;;;;;;;;;5053691;28;20236;-13
2022/03/18 07:45:04;;;;;;;3.10;2.15;;;;;;;;;;5054090;28;21474;-13
2022/03/18 07:47:31;;;;;;;3.38;2.42;;;;;;;;;;5094289;28;20243;-13
2022/03/18 07:49:58;;;;;;;4.30;2.53;;;;;;;;;;5094176;28;20217;-13
2022/03/18 07:52:26;;;;;;;3.25;2.10;;;;;;;;;;5082539;28;20229;-13
2022/03/18 07:54:56;;;;;;;4.00;2.30;;;;;;;;;;5073753;28;20209;-13
2022/03/18 07:57:23;;;;;;;3.85;2.25;;;;;;;;;;5073154;28;20320;-13
2022/03/18 07:59:50;;;;;;;3.03;1.92;;;;;;;;;;5073831;28;20218;-13
2022/03/18 08:02:17;;;;;;;3.65;2.25;;;;;;;;;;5088418;28;20235;-13
2022/03/18 08:04:44;;;;;;;3.28;2.38;;;;;;;;;;5073769;28;20241;-13
2022/03/18 08:07:11;;;;;;;3.55;2.15;;;;;;;;;;5068658;28;20361;-13
2022/03/18 08:09:38;;;;;;;3.83;2.28;;;;;;;;;;5053199;28;20222;-13
2022/03/18 08:12:05;;;;;;;2.60;2.10;;;;;;;;;;5053392;28;20240;-13
2022/03/18 08:14:33;;;;;;;3.03;2.10;;;;;;;;;;5064740;28;20264;-13
2022/03/18 08:17:00;;;;;;;3.63;2.03;;;;;;;;;;5089926;28;20730;-13
2022/03/18 08:19:27;;;;;;;4.57;2.20;;;;;;;;;;5093403;28;20217;-13
2022/03/18 08:21:53;;;;;;;4.30;2.25;;;;;;;;;;5092643;28;20745;-13
2022/03/18 08:24:20;;;;;;;5.18;2.50;;;;;;;;;;5090712;28;20225;-13
2022/03/18 08:26:47;;;;;;;4.18;2.53;;;;;;;;;;5073187;28;20638;-13
2022/03/18 08:29:14;;;;;;;3.28;2.33;;;;;;;;;;5073311;28;20221;-13
2022/03/18 08:31:41;;;;;;;2.90;1.90;;;;;;;;;;5073426;28;20218;-13
2022/03/18 08:34:08;;;;;;;3.15;2.10;;;;;;;;;;5073310;28;20232;-13
2022/03/18 08:36:35;;;;;;;3.45;2.20;;;;;;;;;;5071820;28;20234;-13
2022/03/18 08:39:02;;;;;;;3.22;1.98;;;;;;;;;;5073316;28;20799;-13
2022/03/18 08:41:34;;;;;;;3.08;1.92;;;;;;;;;;5073164;28;20225;-13
2022/03/18 08:44:01;;;;;;;2.83;1.70;;;;;;;;;;5073040;28;20225;-13
2022/03/18 08:46:28;;;;;;;3.78;2.08;;;;;;;;;;5082792;28;21090;-13
2022/03/18 08:48:56;;;;;;;2.78;1.90;;;;;;;;;;5093273;28;20240;-13
2022/03/18 08:51:24;;;;;;;3.83;2.00;;;;;;;;;;5081917;28;20718;-13
2022/03/18 08:53:51;;;;;;;3.83;2.10;;;;;;;;;;5072922;28;20229;-13
2022/03/18 08:56:18;;;;;;;2.97;1.83;;;;;;;;;;5073047;28;20281;-13
2022/03/18 08:58:45;;;;;;;3.45;1.95;;;;;;;;;;5085872;28;20232;-13
2022/03/18 09:01:12;;;;;;;3.60;1.70;;;;;;;;;;5083863;28;20214;-13
2022/03/18 09:03:39;;;;;;;4.22;1.80;;;;;;;;;;5071822;28;20222;-13
2022/03/18 09:06:07;;;;;;;3.80;1.80;;;;;;;;;;5072480;28;20237;-13
2022/03/18 09:08:34;;;;;;;4.63;1.98;;;;;;;;;;5068805;28;20240;-13
2022/03/18 09:11:01;;;;;;;2.40;1.55;;;;;;;;;;5066031;28;20237;-13
2022/03/18 09:13:28;;;;;;;2.53;1.70;;;;;;;;;;5072548;28;20217;-13
2022/03/18 09:15:55;;;;;;;2.97;1.70;;;;;;;;;;5079725;28;20757;-13
2022/03/18 09:18:24;;;;;;;2.75;1.85;;;;;;;;;;5093345;28;20298;-13
2022/03/18 09:20:51;;;;;;;2.50;2.03;;;;;;;;;;5062943;28;20230;-13
2022/03/18 09:23:18;;;;;;;2.35;1.70;;;;;;;;;;5051728;28;20753;-13
2022/03/18 09:25:45;;;;;;;3.80;2.35;;;;;;;;;;5052656;28;20234;-13
2022/03/18 09:28:12;;;;;;;2.50;1.63;;;;;;;;;;5052448;28;20214;-13
2022/03/18 09:30:55;;;;;;;2.53;1.50;;;;;;;;;;5058621;28;20236;-13
2022/03/18 09:33:22;;;;;;;3.00;1.58;;;;;;;;;;5072192;28;20218;-13
2022/03/18 09:35:49;;;;;;;3.85;1.50;;;;;;;;;;5071890;28;20236;-13
2022/03/18 09:38:16;;;;;;;3.92;1.60;;;;;;;;;;5056033;28;20226;-13
2022/03/18 09:40:43;;;;;;;2.78;1.70;;;;;;;;;;5051887;28;20259;-13
2022/03/18 09:43:30;;;;;;;2.13;1.40;;;;;;;;;;5091697;28;20236;-13
2022/03/18 09:45:57;;;;;;;2.40;1.70;;;;;;;;;;5084585;28;20241;-13
2022/03/18 09:48:44;;;;;;;3.05;1.58;;;;;;;;;;5072405;28;20240;-13
2022/03/18 09:51:11;;;;;;;2.20;1.27;;;;;;;;;;5072123;28;20213;-13
2022/03/18 09:53:38;;;;;;;2.38;1.50;;;;;;;;;;5071000;28;20229;-13
2022/03/18 09:56:05;;;;;;;2.80;1.85;;;;;;;;;;5071981;28;20218;-13
2022/03/18 09:58:32;;;;;;;2.20;1.40;;;;;;;;;;5071862;28;20224;-13
2022/03/18 10:01:01;;;;;;;2.05;1.40;;;;;;;;;;5071195;28;20945;-14
2022/03/18 10:03:28;;;;;;;3.22;1.48;;;;;;;;;;5071054;28;20229;-13
2022/03/18 10:05:58;;;;;;;2.60;1.33;;;;;;;;;;5063917;28;20713;-13
2022/03/18 10:08:25;;;;;;;1.90;1.35;;;;;;;;;;5051324;28;20229;-13
2022/03/18 10:10:52;;;;;;;2.40;1.35;;;;;;;;;;5051198;28;20221;-13
2022/03/18 10:13:20;;;;;;;3.33;1.33;;;;;;;;;;5051507;28;20948;-13
2022/03/18 10:15:47;;;;;;;2.20;1.38;;;;;;;;;;5070015;28;20710;-13
2022/03/18 10:18:14;;;;;;;2.50;1.50;;;;;;;;;;5090774;28;20225;-13
2022/03/18 10:20:41;;;;;;;2.60;1.30;;;;;;;;;;5091780;28;21015;-13
2022/03/18 10:23:08;;;;;;;2.47;1.25;;;;;;;;;;5091402;28;20735;-13
2022/03/18 10:25:35;;;;;;;3.50;1.33;;;;;;;;;;5085894;28;20245;-13
2022/03/18 10:28:02;;;;;;;2.03;1.38;;;;;;;;;;5071583;28;20213;-13
2022/03/18 10:30:29;;;;;;;2.75;1.58;;;;;;;;;;5074527;28;20231;-13
2022/03/18 10:32:56;;;;;;;2.30;1.30;;;;;;;;;;5091849;28;20224;-13
2022/03/18 10:38:11;;;;;;;2.05;1.30;;;;;;;;;;5048624;28;20252;-13
2022/03/18 10:40:38;;;;;;;3.40;1.50;;;;;;;;;;5071277;28;21027;-13
2022/03/18 10:43:05;;;;;;;3.40;1.55;;;;;;;;;;5071285;28;20221;-13
2022/03/18 10:45:32;;;;;;;4.18;1.55;;;;;;;;;;5075003;28;20241;-13
2022/03/18 10:47:59;;;;;;;2.95;1.45;;;;;;;;;;5082924;28;20260;-13
2022/03/18 10:50:29;;;;;;;3.00;1.30;;;;;;;;;;5067598;28;20226;-13
2022/03/18 10:52:59;;;;;;;2.70;1.40;;;;;;;;;;5051255;28;20246;-13
2022/03/18 10:55:26;;;;;;;2.45;1.10;;;;;;;;;;5051038;28;20240;-13
2022/03/18 10:57:53;;;;;;;2.40;1.42;;;;;;;;;;5051215;28;20210;-13
2022/03/18 11:00:20;;;;;;;2.78;1.30;;;;;;;;;;5084050;28;20746;-13
2022/03/18 11:02:47;;;;;;;2.58;1.30;;;;;;;;;;5071398;28;20214;-13
2022/03/18 11:05:14;;;;;;;2.50;1.25;;;;;;;;;;5070706;28;20230;-13
2022/03/18 11:07:41;;;;;;;2.22;1.23;;;;;;;;;;5051042;28;20232;-13
2022/03/18 11:12:54;;;;;;;2.78;1.30;;;;;;;;;;5070931;28;20231;-13
2022/03/18 11:15:21;;;;;;;2.97;1.40;;;;;;;;;;5070152;28;20225;-13
2022/03/18 11:17:48;;;;;;;2.97;1.15;;;;;;;;;;5071327;28;20228;-13
2022/03/18 11:20:20;;;;;;;2.08;1.05;;;;;;;;;;5070187;28;20217;-13
2022/03/18 11:22:47;;;;;;;4.95;1.60;;;;;;;;;;5056153;28;20246;-13
2022/03/18 11:25:14;;;;;;;2.72;1.25;;;;;;;;;;5050898;28;20229;-13
2022/03/18 11:27:44;;;;;;;3.67;1.20;;;;;;;;;;5054357;28;20218;-13
2022/03/18 11:30:11;;;;;;;2.75;1.20;;;;;;;;;;5056020;28;20225;-13
2022/03/18 11:32:38;;;;;;;3.13;1.38;;;;;;;;;;5080928;28;20234;-13
2022/03/18 11:35:06;;;;;;;2.92;1.40;;;;;;;;;;5074207;28;20217;-13
2022/03/18 11:37:33;;;;;;;1.85;1.10;;;;;;;;;;5073438;28;20225;-13
2022/03/18 11:40:00;;;;;;;3.13;1.30;;;;;;;;;;5073537;28;20210;-13
2022/03/18 11:42:27;;;;;;;2.17;1.30;;;;;;;;;;5073493;28;20328;-13
2022/03/18 11:44:56;;;;;;;2.30;1.17;;;;;;;;;;5074398;28;21019;-13
2022/03/18 11:47:23;;;;;;;3.08;1.55;;;;;;;;;;5093184;28;20243;-13
2022/03/18 11:50:06;;;;;;;2.10;1.20;;;;;;;;;;5092946;28;20305;-13
2022/03/18 11:52:33;;;;;;;2.92;1.30;;;;;;;;;;5073873;28;21097;-13
2022/03/18 11:55:00;;;;;;;2.08;1.30;;;;;;;;;;5073240;28;20371;-13
2022/03/18 11:57:27;;;;;;;3.72;1.40;;;;;;;;;;5073798;28;20222;-13
2022/03/18 11:59:55;;;;;;;3.55;1.35;;;;;;;;;;5073862;28;20226;-13
2022/03/18 12:02:23;;;;;;;2.75;1.30;;;;;;;;;;5073726;28;20218;-13
2022/03/18 12:04:54;;;;;;;5.60;2.22;;;;;;;;;;5072322;28;20233;-13
2022/03/18 12:07:24;;;;;;;3.13;1.50;;;;;;;;;;5066468;28;20222;-13
2022/03/18 12:09:52;;;;;;;3.22;1.35;;;;;;;;;;5053450;28;20949;-13
2022/03/18 12:12:19;;;;;;;4.80;1.60;;;;;;;;;;5053818;28;20216;-13
2022/03/18 12:14:46;;;;;;;1.80;1.20;;;;;;;;;;5053862;28;20230;-13
2022/03/18 12:17:13;;;;;;;3.97;1.40;;;;;;;;;;5088359;28;20225;-13
2022/03/18 12:19:44;;;;;;;3.72;1.40;;;;;;;;;;5109191;28;20299;-13
2022/03/18 12:22:11;;;;;;;5.18;1.45;;;;;;;;;;5093226;28;20327;-13
2022/03/18 12:24:40;;;;;;;3.40;1.23;;;;;;;;;;5093864;28;20229;-13
2022/03/18 12:27:07;;;;;;;2.72;1.20;;;;;;;;;;5084417;28;20225;-13
2022/03/18 12:29:34;;;;;;;1.80;0.95;;;;;;;;;;5073031;28;20236;-13
2022/03/18 12:32:01;;;;;;;4.00;1.50;;;;;;;;;;5072917;28;20229;-13
2022/03/18 12:34:28;;;;;;;3.08;1.17;;;;;;;;;;5073376;28;20218;-13
2022/03/18 12:36:55;;;;;;;3.15;1.17;;;;;;;;;;5072493;28;20222;-13
2022/03/18 12:39:22;;;;;;;3.20;1.25;;;;;;;;;;5071834;28;20618;-13
2022/03/18 12:41:50;;;;;;;2.28;1.20;;;;;;;;;;5073144;28;20599;-13
2022/03/18 12:44:18;;;;;;;2.22;1.27;;;;;;;;;;5073257;28;20275;-13
2022/03/18 12:46:45;;;;;;;3.00;1.38;;;;;;;;;;5072521;28;20240;-13
2022/03/18 12:49:12;;;;;;;3.05;1.10;;;;;;;;;;5071033;28;20692;-13
2022/03/18 12:51:39;;;;;;;1.55;0.73;;;;;;;;;;5072953;28;20256;-13
2022/03/18 12:54:06;;;;;;;4.93;1.25;;;;;;;;;;5072646;28;20229;-13
2022/03/18 12:56:33;;;;;;;3.10;1.05;;;;;;;;;;5071313;28;20849;-13
2022/03/18 12:59:00;;;;;;;2.60;1.33;;;;;;;;;;5072739;28;20225;-13
2022/03/18 13:01:42;;;;;;;3.67;1.23;;;;;;;;;;5080040;28;20232;-13
2022/03/18 13:04:09;;;;;;;2.30;1.13;;;;;;;;;;5093371;28;20232;-13
2022/03/18 13:06:37;;;;;;;3.45;1.15;;;;;;;;;;5093027;28;20259;-13
2022/03/18 13:09:04;;;;;;;3.03;1.13;;;;;;;;;;5072393;28;20948;-13
2022/03/18 13:11:31;;;;;;;2.05;1.05;;;;;;;;;;5071890;28;20276;-13
2022/03/18 13:13:58;;;;;;;4.38;1.27;;;;;;;;;;5072771;28;20291;-13
2022/03/18 13:16:25;;;;;;;2.38;1.00;;;;;;;;;;5072657;28;20279;-13
2022/03/18 13:18:52;;;;;;;2.10;1.15;;;;;;;;;;5072010;28;20766;-13
2022/03/18 13:21:20;;;;;;;2.53;1.10;;;;;;;;;;5071363;28;20702;-13
2022/03/18 13:23:49;;;;;;;2.75;1.00;;;;;;;;;;5072657;28;20218;-13
2022/03/18 13:26:16;;;;;;;2.95;1.10;;;;;;;;;;5072434;28;20238;-13
2022/03/18 13:28:43;;;;;;;3.38;1.10;;;;;;;;;;5072260;28;21087;-13
2022/03/18 13:33:56;;;;;;;2.08;1.10;;;;;;;;;;5076410;28;20264;-13
2022/03/18 13:36:23;;;;;;;5.45;1.02;;;;;;;;;;5071897;28;20232;-13
2022/03/18 13:38:50;;;;;;;2.70;1.17;;;;;;;;;;5052080;28;20226;-13
2022/03/18 13:41:17;;;;;;;4.18;0.90;;;;;;;;;;5052025;28;20226;-13
2022/03/18 13:43:45;;;;;;;3.80;1.30;;;;;;;;;;5056423;28;21128;-13
2022/03/18 13:46:12;;;;;;;3.13;1.10;;;;;;;;;;5071941;28;20245;-13
2022/03/18 13:48:40;;;;;;;2.63;1.10;;;;;;;;;;5071779;28;20233;-13
2022/03/18 13:51:07;;;;;;;2.95;1.17;;;;;;;;;;5072093;28;20224;-13
2022/03/18 13:53:35;;;;;;;3.33;0.90;;;;;;;;;;5072063;28;20225;-13
2022/03/18 13:56:04;;;;;;;2.63;1.13;;;;;;;;;;5071241;28;20229;-13
2022/03/18 13:58:31;;;;;;;3.00;1.08;;;;;;;;;;5071974;28;20236;-13
2022/03/18 14:00:58;;;;;;;3.38;1.10;;;;;;;;;;5079727;28;20225;-13
2022/03/18 14:03:25;;;;;;;2.55;1.17;;;;;;;;;;5092309;28;20239;-13
2022/03/18 14:05:52;;;;;;;1.63;0.80;;;;;;;;;;5084943;28;20257;-13
2022/03/18 14:08:19;;;;;;;4.55;1.20;;;;;;;;;;5055564;28;20233;-13
2022/03/18 14:10:46;;;;;;;2.65;0.93;;;;;;;;;;5051871;28;20218;-13
2022/03/18 14:13:13;;;;;;;3.17;1.10;;;;;;;;;;5051876;28;20222;-13
2022/03/18 14:15:41;;;;;;;2.08;0.90;;;;;;;;;;5061846;28;20252;-13
2022/03/18 14:18:08;;;;;;;3.25;1.10;;;;;;;;;;5074299;28;20236;-13
2022/03/18 14:20:35;;;;;;;2.10;1.05;;;;;;;;;;5071933;28;20214;-14
2022/03/18 14:23:02;;;;;;;2.80;1.20;;;;;;;;;;5071337;28;20251;-14
2022/03/18 14:25:29;;;;;;;3.03;1.05;;;;;;;;;;5071794;28;20228;-13
2022/03/18 14:27:56;;;;;;;2.13;1.00;;;;;;;;;;5064246;28;20700;-15
2022/03/18 14:30:24;;;;;;;1.25;0.75;;;;;;;;;;5056927;28;20226;-13
2022/03/18 14:32:51;;;;;;;3.38;1.17;;;;;;;;;;5091296;28;21069;-13
2022/03/18 14:35:18;;;;;;;3.00;1.10;;;;;;;;;;5091662;28;20227;-13
2022/03/18 14:37:45;;;;;;;2.17;1.13;;;;;;;;;;5077273;28;21041;-13
2022/03/18 14:40:12;;;;;;;4.13;1.30;;;;;;;;;;5070865;28;20237;-13
2022/03/18 14:42:42;;;;;;;3.92;1.52;;;;;;;;;;5071504;28;20229;-13
2022/03/18 14:45:14;;;;;;;2.55;1.00;;;;;;;;;;5071238;28;20233;-13
2022/03/18 14:47:41;;;;;;;2.92;1.08;;;;;;;;;;5071437;28;20773;-15
2022/03/18 14:50:08;;;;;;;2.13;1.00;;;;;;;;;;5070358;28;20241;-13
2022/03/18 14:52:35;;;;;;;2.20;1.10;;;;;;;;;;5071484;28;20229;-13
2022/03/18 14:57:48;;;;;;;3.75;1.20;;;;;;;;;;5070597;28;20229;-15
2022/03/18 15:00:15;;;;;;;2.22;1.10;;;;;;;;;;5069937;28;20217;-15
2022/03/18 15:02:42;;;;;;;3.08;1.10;;;;;;;;;;5053350;28;20668;-13
2022/03/18 15:05:10;;;;;;;2.78;1.00;;;;;;;;;;5054604;28;20261;-15
2022/03/18 15:07:37;;;;;;;2.50;0.90;;;;;;;;;;5054778;28;20313;-14
2022/03/18 15:10:04;;;;;;;3.25;1.27;;;;;;;;;;5054334;28;20225;-15
2022/03/18 15:12:31;;;;;;;3.67;1.10;;;;;;;;;;5065533;28;21057;-15